createdAt,value
2018-12-20T00:03:08.335Z,98.40
2018-12-20T00:14:41.621Z,98.20
2018-12-20T00:24:46.132Z,98.50
2018-12-20T00:34:50.330Z,98.30
2018-12-20T00:44:54.492Z,98.30
2018-12-20T00:54:58.617Z,98.00
2018-12-20T01:05:02.853Z,98.10
2018-12-20T01:15:07.736Z,98.20
2018-12-20T01:25:12.088Z,98.00
2018-12-20T01:35:16.250Z,98.30
2018-12-20T01:45:20.401Z,98.40
2018-12-20T01:55:24.549Z,98.40
2018-12-20T02:05:29.015Z,98.30
2018-12-20T02:15:33.385Z,98.30
2018-12-20T02:25:37.598Z,98.50
2018-12-20T02:35:42.094Z,98.40
2018-12-20T02:45:46.553Z,98.40
2018-12-20T02:55:50.763Z,98.40
2018-12-20T03:05:55.078Z,98.50
2018-12-20T03:15:59.339Z,98.50
2018-12-20T03:26:03.556Z,98.50
2018-12-20T03:36:07.689Z,98.60
2018-12-20T03:46:11.904Z,98.80
2018-12-20T03:56:16.087Z,98.60
2018-12-20T04:06:20.587Z,98.80
2018-12-20T04:16:24.773Z,98.70
2018-12-20T04:26:29.061Z,98.80
2018-12-20T04:36:33.327Z,99.10
2018-12-20T04:46:37.730Z,98.90
2018-12-20T04:56:42.027Z,98.70
2018-12-20T05:06:46.119Z,98.90
2018-12-20T05:16:50.332Z,98.90
2018-12-20T05:26:54.621Z,98.80
2018-12-20T05:36:58.794Z,98.90
2018-12-20T05:47:02.979Z,98.90
2018-12-20T05:57:07.319Z,98.70
2018-12-20T06:07:11.631Z,98.80
2018-12-20T06:17:15.859Z,98.80
2018-12-20T06:27:21.109Z,98.70
2018-12-20T06:37:25.371Z,98.70
2018-12-20T06:47:29.573Z,98.60
2018-12-20T06:57:33.779Z,98.40
2018-12-20T07:07:37.906Z,98.30
2018-12-20T07:17:42.150Z,98.20
2018-12-20T07:27:46.306Z,98.30
2018-12-20T07:37:50.469Z,98.30
2018-12-20T07:47:54.694Z,98.10
2018-12-20T07:57:58.778Z,98.10
2018-12-20T08:08:03.014Z,98.20
2018-12-20T08:18:07.357Z,98.20
2018-12-20T08:28:14.851Z,97.70
2018-12-20T08:38:19.037Z,97.60
2018-12-20T08:48:23.237Z,97.50
2018-12-20T08:58:27.412Z,97.60
2018-12-20T09:08:31.790Z,97.70
2018-12-20T09:18:36.100Z,97.60
2018-12-20T09:28:40.437Z,97.00
2018-12-20T09:38:44.683Z,96.40
2018-12-20T09:48:48.922Z,96.50
2018-12-20T09:58:53.721Z,96.50
2018-12-20T10:08:58.002Z,96.30
2018-12-20T10:19:02.201Z,96.40
2018-12-20T10:29:06.473Z,96.50
2018-12-20T10:39:10.850Z,96.40
2018-12-20T10:49:14.946Z,96.70
2018-12-20T10:59:19.089Z,97.10
2018-12-20T11:09:28.514Z,97.20
2018-12-20T11:19:32.694Z,96.70
2018-12-20T11:29:36.904Z,96.50
2018-12-20T11:39:41.221Z,96.40
2018-12-20T11:49:45.470Z,96.70
2018-12-20T11:59:49.809Z,96.60
2018-12-20T12:09:53.985Z,96.60
2018-12-20T12:19:58.158Z,96.40
2018-12-20T12:30:02.357Z,96.10
2018-12-20T12:40:07.959Z,96.30
2018-12-20T12:50:12.446Z,96.30
2018-12-20T13:00:20.342Z,96.40
2018-12-20T13:10:24.690Z,96.40
2018-12-20T13:20:29.091Z,96.20
2018-12-20T13:30:33.299Z,96.20
2018-12-20T13:40:37.627Z,96.20
2018-12-20T13:50:42.013Z,96.40
2018-12-20T14:00:46.259Z,96.60
2018-12-20T14:10:50.337Z,96.70
2018-12-20T14:20:54.710Z,96.70
2018-12-20T14:30:59.196Z,96.70
2018-12-20T14:41:04.027Z,96.70
2018-12-20T14:51:08.353Z,96.50
2018-12-20T15:01:12.635Z,96.70
2018-12-20T15:11:17.152Z,96.80
2018-12-20T15:21:21.523Z,96.70
2018-12-20T15:31:26.736Z,96.80
2018-12-20T15:41:31.013Z,96.60
2018-12-20T15:51:35.679Z,96.90
2018-12-20T16:01:39.850Z,96.60
2018-12-20T16:11:44.007Z,96.60
2018-12-20T16:21:48.538Z,96.70
2018-12-20T16:31:52.676Z,96.70
2018-12-20T16:41:56.876Z,96.70
2018-12-20T16:52:01.110Z,97.10
2018-12-20T17:02:05.582Z,98.10
2018-12-20T17:12:09.766Z,99.00
2018-12-20T17:22:14.011Z,99.80
2018-12-20T17:32:19.338Z,99.90
2018-12-20T17:42:23.486Z,99.90
2018-12-20T17:52:27.653Z,99.90
2018-12-20T18:02:32.109Z,99.90
2018-12-20T18:12:37.723Z,99.90
2018-12-20T18:22:43.376Z,99.90
2018-12-20T18:32:49.201Z,99.90
2018-12-20T18:42:55.066Z,99.90
2018-12-20T18:53:01.166Z,99.90
2018-12-20T19:03:07.990Z,99.90
2018-12-20T19:13:12.426Z,99.90
2018-12-20T19:23:17.441Z,99.90
2018-12-20T19:33:21.907Z,99.90
2018-12-20T19:43:26.166Z,99.90
2018-12-20T19:53:31.531Z,99.90
2018-12-20T20:03:35.725Z,99.90
2018-12-20T20:13:40.260Z,99.90
2018-12-20T20:23:45.564Z,99.90
2018-12-20T20:33:49.669Z,99.90
2018-12-20T20:43:55.589Z,99.90
2018-12-20T20:54:00.298Z,99.90
2018-12-20T21:04:04.715Z,99.90
2018-12-20T21:14:08.974Z,99.90
2018-12-20T21:24:13.993Z,99.90
2018-12-20T21:34:19.100Z,99.90
2018-12-20T21:44:23.297Z,99.90
2018-12-20T21:54:27.723Z,99.90
2018-12-20T22:04:31.872Z,99.90
2018-12-20T22:14:37.078Z,99.90
2018-12-20T22:24:41.272Z,99.90
2018-12-20T22:34:45.386Z,99.90
2018-12-20T22:44:50.490Z,99.90
2018-12-20T22:54:54.713Z,99.90
2018-12-20T23:04:58.959Z,99.90
2018-12-20T23:15:04.952Z,99.90
2018-12-20T23:25:10.861Z,99.90
2018-12-20T23:35:17.056Z,99.90
2018-12-20T23:45:21.967Z,99.90
2018-12-20T23:55:28.366Z,99.90
